Time;durP1;ratioP1;P1;durP2;ratioP2;P2;SDS_P1;SDS_P2;PMS_P1;PMS_P2;Temp;Humidity;BMP_temperature;BMP_pressure;BME280_temperature;BME280_humidity;BME280_pressure;Samples;Min_cycle;Max_cycle;Signal;HPM_P1;HPM_P2
2022/10/15 00:01:48;;;;;;;25.63;22.83;;;;;;;;;;5035867;28;20211;-80
2022/10/15 00:04:17;;;;;;;28.50;23.80;;;;;;;;;;5036604;28;20203;-80
2022/10/15 00:06:46;;;;;;;28.83;24.30;;;;;;;;;;5036733;28;20208;-80
2022/10/15 00:09:14;;;;;;;28.63;24.13;;;;;;;;;;5037158;28;20224;-80
2022/10/15 00:11:43;;;;;;;28.63;24.20;;;;;;;;;;5035820;28;20224;-80
2022/10/15 00:14:11;;;;;;;29.13;23.63;;;;;;;;;;5037305;28;20208;-80
2022/10/15 00:16:40;;;;;;;30.87;25.07;;;;;;;;;;5037806;28;20542;-80
2022/10/15 00:19:10;;;;;;;29.07;24.30;;;;;;;;;;5038359;28;20593;-80
2022/10/15 00:21:38;;;;;;;29.53;25.20;;;;;;;;;;5037979;28;20185;-80
2022/10/15 00:24:07;;;;;;;29.73;23.70;;;;;;;;;;5036840;28;20189;-80
2022/10/15 00:26:36;;;;;;;27.67;23.23;;;;;;;;;;5038178;28;20227;-80
2022/10/15 00:29:05;;;;;;;29.57;23.50;;;;;;;;;;5037919;28;20224;-80
2022/10/15 00:31:33;;;;;;;31.97;25.43;;;;;;;;;;5038302;28;20208;-80
2022/10/15 00:34:02;;;;;;;33.67;26.73;;;;;;;;;;5037975;28;20216;-80
2022/10/15 00:36:33;;;;;;;36.80;26.90;;;;;;;;;;5037308;28;20205;-80
2022/10/15 00:39:01;;;;;;;39.63;28.73;;;;;;;;;;5037706;28;20196;-80
2022/10/15 00:41:31;;;;;;;38.63;29.50;;;;;;;;;;5036683;28;20196;-80
2022/10/15 00:44:00;;;;;;;42.70;30.50;;;;;;;;;;5034960;28;20211;-80
2022/10/15 00:46:31;;;;;;;40.37;29.70;;;;;;;;;;5035956;28;20207;-80
2022/10/15 00:49:02;;;;;;;40.73;29.40;;;;;;;;;;5037846;28;20199;-80
2022/10/15 00:51:40;;;;;;;43.27;30.37;;;;;;;;;;5037538;28;20216;-80
2022/10/15 00:54:09;;;;;;;35.23;26.83;;;;;;;;;;5038131;28;20200;-80
2022/10/15 00:56:39;;;;;;;39.20;29.20;;;;;;;;;;5037672;28;20235;-80
2022/10/15 00:59:08;;;;;;;44.17;30.30;;;;;;;;;;5036830;28;20224;-80
2022/10/15 01:01:37;;;;;;;44.23;30.77;;;;;;;;;;5036697;28;20204;-80
2022/10/15 01:04:06;;;;;;;43.00;30.70;;;;;;;;;;5037149;28;20208;-80
2022/10/15 01:06:35;;;;;;;43.60;30.03;;;;;;;;;;5037500;28;20441;-80
2022/10/15 01:09:05;;;;;;;43.47;29.20;;;;;;;;;;5038006;28;20228;-80
2022/10/15 01:11:38;;;;;;;44.27;30.00;;;;;;;;;;5038681;28;20647;-80
2022/10/15 01:14:13;;;;;;;43.50;29.77;;;;;;;;;;5039031;28;20173;-80
2022/10/15 01:16:46;;;;;;;41.80;28.90;;;;;;;;;;5038604;28;20188;-80
2022/10/15 01:19:24;;;;;;;42.07;29.17;;;;;;;;;;5037961;28;20232;-80
2022/10/15 01:21:57;;;;;;;43.07;29.03;;;;;;;;;;5037036;28;20220;-80
2022/10/15 01:24:39;;;;;;;34.93;25.10;;;;;;;;;;5037472;28;20192;-80
2022/10/15 01:27:19;;;;;;;33.43;24.70;;;;;;;;;;5037832;28;20188;-79
2022/10/15 01:29:59;;;;;;;32.93;23.60;;;;;;;;;;5037664;28;20226;-80
2022/10/15 01:32:29;;;;;;;30.87;22.73;;;;;;;;;;5037568;28;20208;-80
2022/10/15 01:35:03;;;;;;;29.80;22.97;;;;;;;;;;5037901;28;20173;-80
2022/10/15 01:37:37;;;;;;;27.30;21.00;;;;;;;;;;5038357;28;20237;-79
2022/10/15 01:40:07;;;;;;;26.23;19.73;;;;;;;;;;5037950;28;20204;-80
2022/10/15 01:42:39;;;;;;;33.60;24.00;;;;;;;;;;5037742;28;20193;-80
2022/10/15 01:45:09;;;;;;;32.90;23.67;;;;;;;;;;5037199;28;20185;-80
2022/10/15 01:47:42;;;;;;;64.87;17.73;;;;;;;;;;5037037;28;20189;-80
2022/10/15 01:50:12;;;;;;;75.77;22.20;;;;;;;;;;5036956;28;20243;-79
2022/10/15 01:52:41;;;;;;;41.20;22.07;;;;;;;;;;5036733;28;20219;-80
2022/10/15 01:55:12;;;;;;;37.43;23.80;;;;;;;;;;5036983;28;20212;-80
2022/10/15 01:57:42;;;;;;;30.83;21.43;;;;;;;;;;5037875;28;20199;-80
2022/10/15 02:00:11;;;;;;;75.33;22.50;;;;;;;;;;5037155;28;20227;-80
2022/10/15 02:02:40;;;;;;;37.37;19.80;;;;;;;;;;5037933;28;20200;-79
2022/10/15 02:05:11;;;;;;;19.77;15.77;;;;;;;;;;5038219;28;20208;-80
2022/10/15 02:07:44;;;;;;;20.23;15.33;;;;;;;;;;5037669;28;20216;-80
2022/10/15 02:10:15;;;;;;;17.53;13.93;;;;;;;;;;5036803;28;20220;-80
2022/10/15 02:12:50;;;;;;;15.63;13.67;;;;;;;;;;5036205;28;20216;-80
2022/10/15 02:15:24;;;;;;;17.33;14.33;;;;;;;;;;5034717;28;20165;-80
2022/10/15 02:17:58;;;;;;;26.20;16.00;;;;;;;;;;5034458;28;20204;-80
2022/10/15 02:20:29;;;;;;;167.80;19.47;;;;;;;;;;5033760;28;20228;-80
2022/10/15 02:23:01;;;;;;;20.27;14.27;;;;;;;;;;5034950;28;20188;-80
2022/10/15 02:25:31;;;;;;;18.60;13.47;;;;;;;;;;5035581;28;20188;-80
2022/10/15 02:28:00;;;;;;;16.97;14.37;;;;;;;;;;5035757;28;20192;-80
2022/10/15 02:30:29;;;;;;;17.80;15.20;;;;;;;;;;5033780;28;20231;-80
2022/10/15 02:33:00;;;;;;;16.20;14.13;;;;;;;;;;5033632;28;20224;-80
2022/10/15 02:35:29;;;;;;;19.37;14.97;;;;;;;;;;5036751;28;20193;-80
2022/10/15 02:37:58;;;;;;;20.60;15.93;;;;;;;;;;5038000;28;20212;-80
2022/10/15 02:40:29;;;;;;;19.43;15.07;;;;;;;;;;5036479;28;20244;-80
2022/10/15 02:42:57;;;;;;;21.03;15.60;;;;;;;;;;5037861;28;20181;-80
2022/10/15 02:45:26;;;;;;;32.43;16.67;;;;;;;;;;5037517;28;20208;-80
2022/10/15 02:47:54;;;;;;;28.93;18.57;;;;;;;;;;5036590;28;20204;-80
2022/10/15 02:50:24;;;;;;;85.63;17.97;;;;;;;;;;5035595;28;20219;-80
2022/10/15 02:52:53;;;;;;;39.13;17.60;;;;;;;;;;5035856;28;20228;-80
2022/10/15 02:55:21;;;;;;;22.43;14.27;;;;;;;;;;5034279;28;20208;-81
2022/10/15 02:57:50;;;;;;;31.53;14.80;;;;;;;;;;5036285;28;20258;-80
2022/10/15 03:00:19;;;;;;;20.63;14.60;;;;;;;;;;5038348;28;20235;-80
2022/10/15 03:02:47;;;;;;;36.07;14.37;;;;;;;;;;5036901;28;20205;-80
2022/10/15 03:05:16;;;;;;;21.37;13.77;;;;;;;;;;5036383;28;20235;-80
2022/10/15 03:07:46;;;;;;;13.07;11.77;;;;;;;;;;5037107;28;20258;-80
2022/10/15 03:10:15;;;;;;;43.93;14.40;;;;;;;;;;5033175;28;20241;-80
2022/10/15 03:12:43;;;;;;;39.20;14.07;;;;;;;;;;5033019;28;20235;-80
2022/10/15 03:15:12;;;;;;;20.93;13.57;;;;;;;;;;5033297;28;20200;-80
2022/10/15 03:17:40;;;;;;;15.53;12.77;;;;;;;;;;5033583;28;20212;-80
2022/10/15 03:20:09;;;;;;;27.13;14.40;;;;;;;;;;5031883;28;20228;-80
2022/10/15 03:22:38;;;;;;;28.10;16.10;;;;;;;;;;5032345;28;20239;-80
2022/10/15 03:25:08;;;;;;;50.73;16.70;;;;;;;;;;5031721;28;20220;-80
2022/10/15 03:27:37;;;;;;;71.17;18.33;;;;;;;;;;5032175;28;20207;-80
2022/10/15 03:30:06;;;;;;;58.60;16.07;;;;;;;;;;5031529;28;20251;-82
2022/10/15 03:32:34;;;;;;;63.03;16.80;;;;;;;;;;5030492;28;20208;-80
2022/10/15 03:35:04;;;;;;;41.63;16.40;;;;;;;;;;5030529;28;20217;-80
2022/10/15 03:37:33;;;;;;;25.80;16.57;;;;;;;;;;5031151;28;20211;-80
2022/10/15 03:40:02;;;;;;;20.17;16.20;;;;;;;;;;5031917;28;20220;-80
2022/10/15 03:42:31;;;;;;;52.70;17.67;;;;;;;;;;5032293;28;20204;-80
2022/10/15 03:45:00;;;;;;;48.33;16.97;;;;;;;;;;5030596;28;20200;-80
2022/10/15 03:47:28;;;;;;;25.03;13.87;;;;;;;;;;5028560;28;20208;-80
2022/10/15 03:49:57;;;;;;;16.10;14.40;;;;;;;;;;5029223;28;20227;-80
2022/10/15 03:52:25;;;;;;;16.13;13.27;;;;;;;;;;5029163;28;20209;-80
2022/10/15 03:54:54;;;;;;;59.33;14.73;;;;;;;;;;5026596;28;20235;-80
2022/10/15 03:57:23;;;;;;;75.27;15.80;;;;;;;;;;5025221;28;20208;-80
2022/10/15 03:59:53;;;;;;;110.87;16.93;;;;;;;;;;5023946;28;20274;-80
2022/10/15 04:02:21;;;;;;;81.73;14.73;;;;;;;;;;5024327;28;20258;-80
2022/10/15 04:04:52;;;;;;;100.53;16.17;;;;;;;;;;5024182;28;20205;-80
2022/10/15 04:07:21;;;;;;;37.23;15.47;;;;;;;;;;5027450;28;20227;-80
2022/10/15 04:09:50;;;;;;;49.70;16.37;;;;;;;;;;5027921;28;20229;-80
2022/10/15 04:12:18;;;;;;;38.47;15.83;;;;;;;;;;5028811;28;20259;-81
2022/10/15 04:14:47;;;;;;;105.47;16.87;;;;;;;;;;5026886;28;20235;-80
2022/10/15 04:17:17;;;;;;;43.63;14.90;;;;;;;;;;5026692;28;20278;-80
2022/10/15 04:19:46;;;;;;;52.80;16.00;;;;;;;;;;5024080;28;20267;-80
2022/10/15 04:22:14;;;;;;;19.90;14.30;;;;;;;;;;5025635;28;20204;-80
2022/10/15 04:24:43;;;;;;;43.63;14.83;;;;;;;;;;5024952;28;20200;-81
2022/10/15 04:27:12;;;;;;;30.63;13.50;;;;;;;;;;5024915;28;20200;-80
2022/10/15 04:29:48;;;;;;;15.10;12.93;;;;;;;;;;5020382;28;20278;-81
2022/10/15 04:32:17;;;;;;;18.13;13.83;;;;;;;;;;5021884;28;20189;-80
2022/10/15 04:34:47;;;;;;;16.60;13.20;;;;;;;;;;5021267;28;20271;-80
2022/10/15 04:37:15;;;;;;;21.60;13.23;;;;;;;;;;5023208;28;20211;-80
2022/10/15 04:39:44;;;;;;;17.20;12.03;;;;;;;;;;5022421;28;20235;-80
2022/10/15 04:42:12;;;;;;;23.70;13.77;;;;;;;;;;5019590;28;20205;-80
2022/10/15 04:44:41;;;;;;;32.97;13.33;;;;;;;;;;5018633;28;20200;-80
2022/10/15 04:47:09;;;;;;;17.63;13.13;;;;;;;;;;5018333;28;20559;-80
2022/10/15 04:49:39;;;;;;;41.13;13.80;;;;;;;;;;5019195;28;20270;-80
2022/10/15 04:52:08;;;;;;;38.33;14.83;;;;;;;;;;5020255;28;20215;-80
2022/10/15 04:54:37;;;;;;;17.30;13.43;;;;;;;;;;5019183;28;20224;-80
2022/10/15 04:57:06;;;;;;;23.30;15.70;;;;;;;;;;5017993;28;20271;-80
2022/10/15 04:59:34;;;;;;;46.67;17.40;;;;;;;;;;5017332;28;20220;-80
2022/10/15 05:02:03;;;;;;;22.50;15.77;;;;;;;;;;5017862;28;20204;-80
2022/10/15 05:04:32;;;;;;;21.23;14.53;;;;;;;;;;5020026;28;20197;-80
2022/10/15 05:07:02;;;;;;;34.33;16.83;;;;;;;;;;5020602;28;20204;-80
2022/10/15 05:09:30;;;;;;;179.43;18.97;;;;;;;;;;5020438;28;20232;-80
2022/10/15 05:12:04;;;;;;;37.63;13.93;;;;;;;;;;5019882;28;20189;-80
2022/10/15 05:14:34;;;;;;;83.07;16.27;;;;;;;;;;5018713;28;20221;-80
2022/10/15 05:17:03;;;;;;;99.43;17.00;;;;;;;;;;5017843;28;20194;-80
2022/10/15 05:19:31;;;;;;;55.70;16.20;;;;;;;;;;5017392;28;20224;-80
2022/10/15 05:22:01;;;;;;;38.23;15.23;;;;;;;;;;5017285;28;20205;-80
2022/10/15 05:24:30;;;;;;;67.37;16.57;;;;;;;;;;5017475;28;20201;-80
2022/10/15 05:26:58;;;;;;;31.77;14.60;;;;;;;;;;5017473;28;20247;-80
2022/10/15 05:29:30;;;;;;;30.97;15.27;;;;;;;;;;5017068;28;20228;-80
2022/10/15 05:31:59;;;;;;;27.53;14.20;;;;;;;;;;5017919;28;20204;-80
2022/10/15 05:34:29;;;;;;;14.23;11.90;;;;;;;;;;5016446;28;20270;-80
2022/10/15 05:36:58;;;;;;;39.27;12.13;;;;;;;;;;5015761;28;20212;-80
2022/10/15 05:39:28;;;;;;;108.53;15.47;;;;;;;;;;5015102;28;20255;-81
2022/10/15 05:41:57;;;;;;;52.23;14.70;;;;;;;;;;5015134;28;20270;-80
2022/10/15 05:44:25;;;;;;;22.27;14.23;;;;;;;;;;5015926;28;20227;-80
2022/10/15 05:46:54;;;;;;;21.00;15.20;;;;;;;;;;5016579;28;20609;-80
2022/10/15 05:49:22;;;;;;;26.30;16.87;;;;;;;;;;5016427;28;20275;-80
2022/10/15 05:51:51;;;;;;;23.40;16.23;;;;;;;;;;5016424;28;20611;-80
2022/10/15 05:54:19;;;;;;;26.30;15.47;;;;;;;;;;5016769;28;20236;-80
2022/10/15 05:56:49;;;;;;;26.93;16.63;;;;;;;;;;5016217;28;20248;-80
2022/10/15 05:59:18;;;;;;;25.90;16.30;;;;;;;;;;5015065;28;20319;-80
2022/10/15 06:01:46;;;;;;;27.17;16.77;;;;;;;;;;5014923;28;20200;-80
2022/10/15 06:04:15;;;;;;;30.47;17.00;;;;;;;;;;5015211;28;20204;-80
2022/10/15 06:06:44;;;;;;;31.60;18.20;;;;;;;;;;5017305;28;20216;-80
2022/10/15 06:09:13;;;;;;;28.50;16.70;;;;;;;;;;5017522;28;20252;-80
2022/10/15 06:11:43;;;;;;;31.40;18.10;;;;;;;;;;5021769;28;20212;-80
2022/10/15 06:14:13;;;;;;;34.70;19.20;;;;;;;;;;5021449;28;20262;-80
2022/10/15 06:16:42;;;;;;;57.63;27.20;;;;;;;;;;5020632;28;20235;-80
2022/10/15 06:19:10;;;;;;;58.20;27.43;;;;;;;;;;5019555;28;20693;-80
2022/10/15 06:21:39;;;;;;;64.43;28.63;;;;;;;;;;5018913;28;20228;-80
2022/10/15 06:24:07;;;;;;;72.73;29.20;;;;;;;;;;5018489;28;20719;-80
2022/10/15 06:26:37;;;;;;;118.47;32.90;;;;;;;;;;5019147;28;20625;-80
2022/10/15 06:29:06;;;;;;;87.13;30.80;;;;;;;;;;5017890;28;20228;-80
2022/10/15 06:31:36;;;;;;;91.73;31.93;;;;;;;;;;5018324;28;20252;-80
2022/10/15 06:34:04;;;;;;;79.00;30.83;;;;;;;;;;5019285;28;20601;-80
2022/10/15 06:36:33;;;;;;;71.73;29.80;;;;;;;;;;5022308;28;20204;-80
2022/10/15 06:39:01;;;;;;;74.30;28.90;;;;;;;;;;5023458;28;20204;-80
2022/10/15 06:41:30;;;;;;;84.80;31.43;;;;;;;;;;5021659;28;20212;-80
2022/10/15 06:43:59;;;;;;;72.80;30.90;;;;;;;;;;5019811;28;20204;-80
2022/10/15 06:46:29;;;;;;;74.97;31.17;;;;;;;;;;5020599;28;20287;-80
2022/10/15 06:48:59;;;;;;;73.10;30.93;;;;;;;;;;5019380;28;20205;-80
2022/10/15 06:51:32;;;;;;;75.13;32.33;;;;;;;;;;5021669;28;20193;-80
2022/10/15 06:54:03;;;;;;;73.50;30.90;;;;;;;;;;5020035;28;20272;-80
2022/10/15 06:56:36;;;;;;;77.70;31.93;;;;;;;;;;5019211;28;20584;-80
2022/10/15 06:59:07;;;;;;;85.03;34.20;;;;;;;;;;5023882;28;20712;-80
2022/10/15 07:01:37;;;;;;;91.23;34.03;;;;;;;;;;5024308;28;20215;-80
2022/10/15 07:04:11;;;;;;;138.07;43.87;;;;;;;;;;5020559;28;20287;-80
2022/10/15 07:06:42;;;;;;;162.83;49.13;;;;;;;;;;5017751;28;20197;-80
2022/10/15 07:09:11;;;;;;;180.47;54.20;;;;;;;;;;5018292;28;20240;-80
2022/10/15 07:11:40;;;;;;;175.53;53.03;;;;;;;;;;5017253;28;20603;-80
2022/10/15 07:14:09;;;;;;;192.53;55.97;;;;;;;;;;5017214;28;20723;-80
2022/10/15 07:16:38;;;;;;;172.13;52.00;;;;;;;;;;5017447;28;20735;-80
2022/10/15 07:19:07;;;;;;;162.50;53.37;;;;;;;;;;5017541;28;20641;-80
2022/10/15 07:21:37;;;;;;;162.03;52.77;;;;;;;;;;5016858;28;20259;-80
2022/10/15 07:24:06;;;;;;;165.07;52.93;;;;;;;;;;5017859;28;20680;-80
2022/10/15 07:26:34;;;;;;;159.00;53.37;;;;;;;;;;5016966;28;20208;-80
2022/10/15 07:29:04;;;;;;;146.60;50.77;;;;;;;;;;5016610;28;20196;-80
2022/10/15 07:31:32;;;;;;;144.47;50.87;;;;;;;;;;5016659;28;20258;-80
2022/10/15 07:34:04;;;;;;;139.37;50.90;;;;;;;;;;5018276;28;20212;-80
2022/10/15 07:36:56;;;;;;;140.93;52.07;;;;;;;;;;5019040;28;20739;-80
2022/10/15 07:39:29;;;;;;;145.03;49.70;;;;;;;;;;5021931;28;20260;-80
2022/10/15 07:41:58;;;;;;;134.23;49.10;;;;;;;;;;5018465;28;20201;-80
2022/10/15 07:44:28;;;;;;;137.20;50.83;;;;;;;;;;5018725;28;20211;-80
2022/10/15 07:46:58;;;;;;;144.43;50.53;;;;;;;;;;5018731;28;20586;-80
2022/10/15 07:49:26;;;;;;;140.43;50.93;;;;;;;;;;5017686;28;20220;-80
2022/10/15 07:51:55;;;;;;;128.40;49.97;;;;;;;;;;5016531;28;20733;-80
2022/10/15 07:54:24;;;;;;;132.70;51.60;;;;;;;;;;5016601;28;20231;-80
2022/10/15 07:56:54;;;;;;;116.80;49.10;;;;;;;;;;5015916;28;20220;-79
2022/10/15 07:59:22;;;;;;;124.03;48.90;;;;;;;;;;5016361;28;20735;-79
2022/10/15 08:01:51;;;;;;;112.70;47.77;;;;;;;;;;5016120;28;20684;-79
2022/10/15 08:04:20;;;;;;;110.43;45.97;;;;;;;;;;5016425;28;20209;-79
2022/10/15 08:06:48;;;;;;;107.73;46.30;;;;;;;;;;5016141;28;20571;-79
2022/10/15 08:09:17;;;;;;;98.70;45.47;;;;;;;;;;5016392;28;20220;-80
2022/10/15 08:11:45;;;;;;;95.90;44.27;;;;;;;;;;5016045;28;20240;-80
2022/10/15 08:14:16;;;;;;;91.93;43.37;;;;;;;;;;5016079;28;20688;-79
2022/10/15 08:16:45;;;;;;;98.37;45.63;;;;;;;;;;5016763;28;20212;-79
2022/10/15 08:19:16;;;;;;;93.27;44.03;;;;;;;;;;5016058;28;20263;-80
2022/10/15 08:21:45;;;;;;;98.23;43.40;;;;;;;;;;5020067;28;20204;-79
2022/10/15 08:24:15;;;;;;;93.23;43.40;;;;;;;;;;5018739;28;20231;-80
2022/10/15 08:26:43;;;;;;;94.13;43.30;;;;;;;;;;5018216;28;20201;-80
2022/10/15 08:29:12;;;;;;;93.63;42.53;;;;;;;;;;5018726;28;20700;-80
2022/10/15 08:31:42;;;;;;;87.50;42.00;;;;;;;;;;5019138;28;20212;-80
2022/10/15 08:34:11;;;;;;;91.67;42.40;;;;;;;;;;5024926;28;20255;-80
2022/10/15 08:36:39;;;;;;;87.43;41.90;;;;;;;;;;5023976;28;20275;-80
2022/10/15 08:39:08;;;;;;;79.73;40.30;;;;;;;;;;5026991;28;20224;-80
2022/10/15 08:41:38;;;;;;;81.37;40.50;;;;;;;;;;5025969;28;20205;-80
2022/10/15 08:44:07;;;;;;;78.70;40.53;;;;;;;;;;5017789;28;20205;-80
2022/10/15 08:46:38;;;;;;;77.37;40.23;;;;;;;;;;5018706;28;20227;-80
2022/10/15 08:49:14;;;;;;;76.87;40.73;;;;;;;;;;5019856;28;20224;-80
2022/10/15 08:51:45;;;;;;;68.73;37.57;;;;;;;;;;5019367;28;20215;-80
2022/10/15 08:54:16;;;;;;;72.57;39.10;;;;;;;;;;5027560;28;20185;-80
2022/10/15 08:56:46;;;;;;;64.67;36.50;;;;;;;;;;5027006;28;20763;-79
2022/10/15 08:59:21;;;;;;;68.47;38.30;;;;;;;;;;5032343;28;20221;-79
2022/10/15 09:01:51;;;;;;;69.23;36.27;;;;;;;;;;5024634;28;20188;-80
2022/10/15 09:04:25;;;;;;;68.80;37.87;;;;;;;;;;5032449;28;20303;-80
2022/10/15 09:07:02;;;;;;;71.40;36.30;;;;;;;;;;5024520;28;20669;-80
2022/10/15 09:09:37;;;;;;;67.43;36.73;;;;;;;;;;5027829;28;20232;-80
2022/10/15 09:12:09;;;;;;;62.67;36.50;;;;;;;;;;5024070;28;20192;-80
2022/10/15 09:14:39;;;;;;;61.77;36.77;;;;;;;;;;5024076;28;20193;-80
2022/10/15 09:17:15;;;;;;;57.73;36.73;;;;;;;;;;5019668;28;20204;-80
2022/10/15 09:19:45;;;;;;;57.33;36.57;;;;;;;;;;5023185;28;20711;-80
2022/10/15 09:22:15;;;;;;;59.57;36.03;;;;;;;;;;5019483;28;20231;-80
2022/10/15 09:24:44;;;;;;;51.77;35.17;;;;;;;;;;5022550;28;20193;-80
2022/10/15 09:27:17;;;;;;;48.17;32.93;;;;;;;;;;5019227;28;20188;-81
2022/10/15 09:29:48;;;;;;;48.08;33.75;;;;;;;;;;5023101;28;20228;-80
2022/10/15 09:32:21;;;;;;;46.22;32.28;;;;;;;;;;5021295;28;20212;-80
2022/10/15 09:34:55;;;;;;;41.38;31.52;;;;;;;;;;5016642;28;20197;-80
2022/10/15 09:37:26;;;;;;;42.05;30.73;;;;;;;;;;5015090;28;20244;-80
2022/10/15 09:40:01;;;;;;;36.92;27.85;;;;;;;;;;5015739;28;20254;-80
2022/10/15 09:42:31;;;;;;;39.45;28.38;;;;;;;;;;5014408;28;20215;-80
2022/10/15 09:45:01;;;;;;;39.75;30.70;;;;;;;;;;5014266;28;20244;-81
2022/10/15 09:47:30;;;;;;;37.25;29.13;;;;;;;;;;5013452;28;20634;-81
2022/10/15 09:50:01;;;;;;;40.08;29.70;;;;;;;;;;5013510;28;20232;-80
2022/10/15 09:52:40;;;;;;;38.17;28.73;;;;;;;;;;5014582;28;20231;-79
2022/10/15 09:55:13;;;;;;;39.38;29.63;;;;;;;;;;5013363;28;20242;-79
2022/10/15 09:57:42;;;;;;;40.70;29.63;;;;;;;;;;5013404;28;20251;-79
2022/10/15 10:00:13;;;;;;;39.72;28.55;;;;;;;;;;5013306;28;20650;-79
2022/10/15 10:02:42;;;;;;;37.50;28.90;;;;;;;;;;5013761;28;20188;-79
2022/10/15 10:05:28;;;;;;;39.15;29.90;;;;;;;;;;5012314;28;20295;-80
2022/10/15 10:08:08;;;;;;;32.63;26.33;;;;;;;;;;5011753;28;20207;-79
2022/10/15 10:10:37;;;;;;;36.60;28.15;;;;;;;;;;5011401;28;20759;-79
2022/10/15 10:13:22;;;;;;;36.10;27.98;;;;;;;;;;5012487;28;20188;-79
2022/10/15 10:15:52;;;;;;;35.55;28.00;;;;;;;;;;5012187;28;20798;-79
2022/10/15 10:18:27;;;;;;;35.50;26.92;;;;;;;;;;5012539;28;20730;-80
2022/10/15 10:20:58;;;;;;;30.85;24.80;;;;;;;;;;5012684;28;20251;-79
2022/10/15 10:23:30;;;;;;;31.48;24.77;;;;;;;;;;5013731;28;20224;-81
2022/10/15 10:25:59;;;;;;;27.98;22.42;;;;;;;;;;5013515;28;20197;-80
2022/10/15 10:28:30;;;;;;;26.40;21.52;;;;;;;;;;5013574;28;20200;-80
2022/10/15 10:31:03;;;;;;;25.83;21.45;;;;;;;;;;5013265;28;20224;-80
2022/10/15 10:33:34;;;;;;;26.45;21.85;;;;;;;;;;5013627;28;20673;-80
2022/10/15 10:36:05;;;;;;;23.02;19.30;;;;;;;;;;5013394;28;20231;-80
2022/10/15 10:38:35;;;;;;;22.13;18.05;;;;;;;;;;5013289;28;20262;-80
2022/10/15 10:41:06;;;;;;;22.50;18.63;;;;;;;;;;5012889;28;20263;-81
2022/10/15 10:43:35;;;;;;;25.17;19.73;;;;;;;;;;5013154;28;20189;-79
2022/10/15 10:46:11;;;;;;;21.17;17.95;;;;;;;;;;5013399;28;20271;-81
2022/10/15 10:48:41;;;;;;;19.80;17.25;;;;;;;;;;5013103;28;20235;-80
2022/10/15 10:51:12;;;;;;;18.15;15.95;;;;;;;;;;5012830;28;20283;-80
2022/10/15 10:53:51;;;;;;;16.27;13.52;;;;;;;;;;5012834;28;20192;-80
2022/10/15 10:56:23;;;;;;;20.48;17.80;;;;;;;;;;5015437;28;20753;-80
2022/10/15 10:58:57;;;;;;;17.55;15.00;;;;;;;;;;5016796;28;20263;-80
2022/10/15 11:01:25;;;;;;;15.88;14.25;;;;;;;;;;5016544;28;20228;-80
2022/10/15 11:03:54;;;;;;;18.20;15.05;;;;;;;;;;5017221;28;20209;-80
2022/10/15 11:06:34;;;;;;;15.93;14.35;;;;;;;;;;5016870;28;20618;-80
2022/10/15 11:09:20;;;;;;;16.10;14.23;;;;;;;;;;5017724;28;20188;-80
2022/10/15 11:11:56;;;;;;;16.98;13.30;;;;;;;;;;5017674;28;20254;-80
2022/10/15 11:14:30;;;;;;;16.60;14.68;;;;;;;;;;5017735;28;20224;-80
2022/10/15 11:17:04;;;;;;;16.60;14.32;;;;;;;;;;5016848;28;20216;-80
2022/10/15 11:19:36;;;;;;;14.93;13.45;;;;;;;;;;5016753;28;20224;-80
2022/10/15 11:22:33;;;;;;;15.60;13.75;;;;;;;;;;5016660;28;20553;-80
2022/10/15 11:25:06;;;;;;;13.88;12.57;;;;;;;;;;5016759;28;20235;-80
2022/10/15 11:27:45;;;;;;;16.25;13.60;;;;;;;;;;5018075;28;20181;-80
2022/10/15 11:30:28;;;;;;;17.15;13.85;;;;;;;;;;5017255;28;20263;-81
2022/10/15 11:32:59;;;;;;;14.38;12.95;;;;;;;;;;5017277;28;20215;-81
2022/10/15 11:35:40;;;;;;;12.82;11.57;;;;;;;;;;5017732;28;20668;-80
2022/10/15 11:38:29;;;;;;;13.40;12.00;;;;;;;;;;5017688;28;20565;-80
2022/10/15 11:41:05;;;;;;;13.20;11.90;;;;;;;;;;5017475;28;20223;-81
2022/10/15 11:43:44;;;;;;;14.80;12.00;;;;;;;;;;5017662;28;20669;-80
2022/10/15 11:46:14;;;;;;;13.25;11.85;;;;;;;;;;5017604;28;20200;-80
2022/10/15 11:48:51;;;;;;;13.93;12.52;;;;;;;;;;5017138;28;20227;-80
2022/10/15 11:51:26;;;;;;;13.85;12.45;;;;;;;;;;5016128;28;20193;-80
2022/10/15 11:54:08;;;;;;;12.60;11.40;;;;;;;;;;5016243;28;20629;-80
2022/10/15 11:56:39;;;;;;;12.15;10.95;;;;;;;;;;5015884;28;20224;-78
2022/10/15 11:59:15;;;;;;;12.23;11.05;;;;;;;;;;5017449;28;20689;-78
2022/10/15 12:01:46;;;;;;;12.02;10.82;;;;;;;;;;5014518;28;20258;-78
2022/10/15 12:04:18;;;;;;;12.30;11.10;;;;;;;;;;5013535;28;20215;-78
2022/10/15 12:06:49;;;;;;;11.30;10.20;;;;;;;;;;5012540;28;20683;-78
2022/10/15 12:09:22;;;;;;;11.80;10.70;;;;;;;;;;5013726;28;20252;-78
2022/10/15 12:11:54;;;;;;;11.50;10.30;;;;;;;;;;5013522;28;20204;-78
2022/10/15 12:14:25;;;;;;;11.40;10.25;;;;;;;;;;5007245;28;20294;-77
2022/10/15 12:16:57;;;;;;;10.43;9.43;;;;;;;;;;5003195;28;20204;-78
2022/10/15 12:19:28;;;;;;;9.45;8.55;;;;;;;;;;5014881;28;20603;-77
2022/10/15 12:22:05;;;;;;;9.70;8.75;;;;;;;;;;5015014;28;20247;-78
2022/10/15 12:24:52;;;;;;;8.18;7.32;;;;;;;;;;5008453;28;20258;-78
2022/10/15 12:27:25;;;;;;;9.02;8.13;;;;;;;;;;5014127;28;20315;-78
2022/10/15 12:30:10;;;;;;;7.32;6.72;;;;;;;;;;5015144;28;20316;-78
2022/10/15 12:32:40;;;;;;;6.97;6.28;;;;;;;;;;5014811;28;20204;-79
2022/10/15 12:35:20;;;;;;;7.25;6.65;;;;;;;;;;5014739;28;20243;-78
2022/10/15 12:37:53;;;;;;;7.28;6.63;;;;;;;;;;5015133;28;20275;-78
2022/10/15 12:40:30;;;;;;;6.95;6.00;;;;;;;;;;5013642;28;20282;-79
2022/10/15 12:43:00;;;;;;;6.97;6.28;;;;;;;;;;5005126;28;20279;-77
2022/10/15 12:45:33;;;;;;;6.97;6.38;;;;;;;;;;5014606;28;20251;-77
2022/10/15 12:48:18;;;;;;;6.43;5.82;;;;;;;;;;5014828;28;20283;-78
2022/10/15 12:50:47;;;;;;;6.60;6.00;;;;;;;;;;5014505;28;20745;-77
2022/10/15 12:53:31;;;;;;;6.32;5.75;;;;;;;;;;5014452;28;20236;-78
2022/10/15 12:56:14;;;;;;;6.35;5.75;;;;;;;;;;5021914;28;20204;-78
2022/10/15 12:58:45;;;;;;;6.00;5.40;;;;;;;;;;5012474;28;20322;-77
2022/10/15 13:01:28;;;;;;;5.88;5.38;;;;;;;;;;5014151;28;20634;-77
2022/10/15 13:03:59;;;;;;;6.10;5.47;;;;;;;;;;5011903;28;20569;-77
2022/10/15 13:06:39;;;;;;;5.28;4.88;;;;;;;;;;5014278;28;20626;-78
2022/10/15 13:09:19;;;;;;;5.68;5.18;;;;;;;;;;5013224;28;20216;-77
2022/10/15 13:11:48;;;;;;;5.95;5.45;;;;;;;;;;5000615;28;20295;-77
2022/10/15 13:14:23;;;;;;;4.82;4.43;;;;;;;;;;5013826;28;20208;-78
2022/10/15 13:16:51;;;;;;;5.10;4.63;;;;;;;;;;5005635;28;20623;-76
2022/10/15 13:19:21;;;;;;;5.20;4.75;;;;;;;;;;5012392;28;20232;-77
2022/10/15 13:21:51;;;;;;;4.78;4.38;;;;;;;;;;5017989;28;20625;-77
2022/10/15 13:24:20;;;;;;;5.68;4.15;;;;;;;;;;5013406;28;20200;-77
2022/10/15 13:26:49;;;;;;;4.43;3.95;;;;;;;;;;5015988;28;20274;-78
2022/10/15 13:29:18;;;;;;;4.75;4.35;;;;;;;;;;5011670;28;20559;-78
2022/10/15 13:31:48;;;;;;;4.43;4.03;;;;;;;;;;5013227;28;20228;-78
2022/10/15 13:34:21;;;;;;;5.00;4.30;;;;;;;;;;5013779;28;20601;-77
2022/10/15 13:36:50;;;;;;;5.03;4.53;;;;;;;;;;5006864;28;20235;-76
2022/10/15 13:39:23;;;;;;;3.92;3.53;;;;;;;;;;5011155;28;20315;-77
2022/10/15 13:41:52;;;;;;;3.80;3.50;;;;;;;;;;5013031;28;20536;-76
2022/10/15 13:44:22;;;;;;;4.25;3.85;;;;;;;;;;5014737;28;20735;-77
2022/10/15 13:46:52;;;;;;;3.80;3.47;;;;;;;;;;4994276;28;20558;-77
2022/10/15 13:49:21;;;;;;;3.50;3.20;;;;;;;;;;5007633;28;20216;-77
2022/10/15 13:51:54;;;;;;;3.97;3.38;;;;;;;;;;5014285;28;20212;-77
2022/10/15 13:54:23;;;;;;;4.88;2.95;;;;;;;;;;5033450;28;20203;-76
2022/10/15 13:56:54;;;;;;;2.47;2.28;;;;;;;;;;5033913;28;20235;-76
2022/10/15 13:59:23;;;;;;;2.72;2.35;;;;;;;;;;5007269;28;20263;-77
2022/10/15 14:01:59;;;;;;;3.35;2.08;;;;;;;;;;5010080;28;20200;-76
2022/10/15 14:04:28;;;;;;;2.40;2.10;;;;;;;;;;5013619;28;20684;-76
2022/10/15 14:07:00;;;;;;;2.08;1.90;;;;;;;;;;5012814;28;20296;-76
2022/10/15 14:09:31;;;;;;;1.40;1.30;;;;;;;;;;5007182;28;20579;-76
2022/10/15 14:12:00;;;;;;;1.60;1.50;;;;;;;;;;5013519;28;20647;-76
2022/10/15 14:14:32;;;;;;;1.60;1.50;;;;;;;;;;5013997;28;20231;-76
2022/10/15 14:17:03;;;;;;;2.10;1.40;;;;;;;;;;5000615;28;20647;-76
2022/10/15 14:19:32;;;;;;;1.80;1.38;;;;;;;;;;5013565;28;20256;-76
2022/10/15 14:22:01;;;;;;;1.52;1.35;;;;;;;;;;5013933;28;20204;-76
2022/10/15 14:24:33;;;;;;;3.60;1.50;;;;;;;;;;5012509;28;20205;-76
2022/10/15 14:27:02;;;;;;;2.90;1.90;;;;;;;;;;5012993;28;20204;-76
2022/10/15 14:29:36;;;;;;;1.80;1.63;;;;;;;;;;5010422;28;20271;-76
2022/10/15 14:32:17;;;;;;;3.03;1.48;;;;;;;;;;5014891;28;20239;-76
2022/10/15 14:34:46;;;;;;;1.90;1.75;;;;;;;;;;5017249;28;20223;-77
2022/10/15 14:37:31;;;;;;;2.05;1.65;;;;;;;;;;5017218;28;20240;-77
2022/10/15 14:40:04;;;;;;;2.60;1.63;;;;;;;;;;5017315;28;20264;-76
2022/10/15 14:42:33;;;;;;;1.45;1.30;;;;;;;;;;5016894;28;20255;-76
2022/10/15 14:45:12;;;;;;;2.15;1.63;;;;;;;;;;5017594;28;20199;-77